• Join FlightAware (Why Join?)
  • Login
  • US Flag 
01:19AM EDT


 

Airport Tracker/Info


-or-


 

Live Flight TrackerFlight Track Log ✈ AAL1632 ✈ 17-Feb-2014 ✈ KMIA - MRLB / LIR

Flight Track Log - Related Links

Times and Time Zones

All times are in EST time to prevent confusion due to time zone crossing. See the AAL1632 flight status page for this flight to view local times or setup timezone preferences in your user account.

Time Position Orientation Groundspeed Altitude Reporting Facility
EST Latitude Longitude Course Direction KTS MPH feet Rate Location/Type
07:43PM 25.7986 -80.2606 190° South 172 198 1,200  Level Miami Center
07:43PM 25.7925 -80.2489 120° Southeast 174 200 1,700 1,620 Climbing Miami Center
07:44PM 25.7644 -80.1906 118° Southeast 236 272 3,200 1,800 Climbing Miami Center
07:45PM 25.7092 -80.1450 143° Southeast 290 334 5,400 1,500 Climbing Miami Center
07:46PM 24.8835 -80.6998 241° Southwest  Level FlightAware Approximate
07:46PM 25.6647 -80.1692 206° Southwest 278 320 6,000  Level Miami Center
07:46PM 25.6394 -80.1825 205° Southwest 278 320 6,400 960 Climbing Miami Center
07:47PM 24.7522 -80.9893 245° Southwest  Level FlightAware Approximate
07:47PM 25.5928 -80.2064 205° Southwest 283 326 7,000  Level Miami Center
07:47PM 25.5653 -80.2219 207° Southwest 289 333 7,800 2,700 Climbing Miami Center
07:48PM 24.5104 -81.1167 180° South  Level FlightAware Approximate
07:48PM 25.5189 -80.2458 205° Southwest 288 331 9,700  Level Miami Center
07:48PM 25.4872 -80.2611 204° Southwest 297 342 10,500 1,500 Climbing Miami Center
07:49PM 24.2202 -81.1627 190° South  Level FlightAware Approximate
07:49PM 25.4386 -80.2872 206° Southwest 312 359 11,200  Level Miami Center
07:50PM 25.3369 -80.3397 205° Southwest 340 391 13,600 2,400 Climbing Miami Center
07:51PM 25.2397 -80.3875 204° Southwest 368 423 16,100 2,400 Climbing Miami Center
07:52PM 25.1383 -80.4372 204° Southwest 386 444 18,500 2,400 Climbing Miami Center
07:53PM 25.0347 -80.4892 204° Southwest 398 458 21,000 2,100 Climbing Miami Center
07:54PM 24.9311 -80.5389 204° Southwest 403 464 22,800 1,860 Climbing Miami Center
07:55PM 24.8231 -80.5953 205° Southwest 415 478 24,800 1,800 Climbing Miami Center
07:56PM 24.7111 -80.6444 202° Southwest 428 493 26,400 1,500 Climbing Miami Center
07:57PM 24.5969 -80.7003 204° Southwest 442 509 27,800 1,380 Climbing Miami Center
07:58PM 24.4825 -80.7606 206° Southwest 447 514 29,200 1,440 Climbing Miami Center
07:59PM 24.3642 -80.8139 202° Southwest 452 520 30,700 1,500 Climbing Miami Center
08:00PM 24.2564 -80.8606 202° Southwest 457 526 32,200 1,140 Climbing Miami Center
08:01PM 24.1422 -80.9183 205° Southwest 462 532 33,000 300 Climbing Miami Center
08:02PM 24.0172 -80.9828 205° Southwest 457 526 32,900  Descending Miami Center
08:03PM 23.8986 -81.0378 203° Southwest 457 526 33,000  Climbing Miami Center
08:04PM 23.7908 -81.0886 203° Southwest 465 535 33,000  Level Miami Center
08:06PM 23.6421 -81.1584 203° Southwest  Level FlightAware Approximate
08:13PM 22.8634 -81.4972 196° South  Level FlightAware Approximate
08:14PM 22.7533 -81.5322 197° South  Level FlightAware Approximate
08:15PM 22.6437 -81.5688 197° South  Level FlightAware Approximate
08:16PM 22.5340 -81.6052 197° South  Level FlightAware Approximate
08:17PM 22.4243 -81.6417 197° South  Level FlightAware Approximate
08:18PM 22.3147 -81.6780 197° South  Level FlightAware Approximate
08:19PM 22.2050 -81.7143 197° South  Level FlightAware Approximate
08:20PM 22.0953 -81.7506 197° South  Level FlightAware Approximate
08:21PM 21.9856 -81.7868 197° South  Level FlightAware Approximate
08:22PM 21.8759 -81.8229 197° South  Level FlightAware Approximate
08:23PM 21.7662 -81.8590 197° South  Level FlightAware Approximate
08:24PM 21.6565 -81.8950 197° South  Level FlightAware Approximate
08:25PM 21.5467 -81.9309 197° South  Level FlightAware Approximate
08:26PM 21.4370 -81.9669 197° South  Level FlightAware Approximate
08:27PM 21.3273 -82.0027 197° South  Level FlightAware Approximate
08:28PM 21.2175 -82.0385 197° South  Level FlightAware Approximate
08:29PM 21.1077 -82.0743 197° South  Level FlightAware Approximate
08:30PM 20.9980 -82.1100 197° South  Level FlightAware Approximate
08:31PM 20.8882 -82.1456 197° South  Level FlightAware Approximate
08:32PM 20.7784 -82.1812 197° South  Level FlightAware Approximate
08:33PM 20.6686 -82.2168 197° South  Level FlightAware Approximate
08:34PM 20.5588 -82.2522 197° South  Level FlightAware Approximate
08:35PM 20.4491 -82.2877 197° South  Level FlightAware Approximate
08:36PM 20.3392 -82.3231 197° South  Level FlightAware Approximate
08:37PM 20.2294 -82.3584 197° South  Level FlightAware Approximate
08:38PM 20.1196 -82.3937 197° South  Level FlightAware Approximate
08:39PM 20.0115 -82.4275 205° Southwest  Level FlightAware Approximate
08:40PM 19.9076 -82.4792 205° Southwest  Level FlightAware Approximate
08:41PM 19.8037 -82.5309 205° Southwest  Level FlightAware Approximate
08:42PM 19.6998 -82.5825 205° Southwest  Level FlightAware Approximate
08:43PM 19.5958 -82.6340 205° Southwest  Level FlightAware Approximate
08:44PM 19.4919 -82.6855 205° Southwest  Level FlightAware Approximate
08:45PM 19.3879 -82.7369 205° Southwest  Level FlightAware Approximate
08:46PM 19.2840 -82.7883 205° Southwest  Level FlightAware Approximate
08:47PM 19.1800 -82.8395 205° Southwest  Level FlightAware Approximate
08:48PM 19.0759 -82.8907 205° Southwest  Level FlightAware Approximate
08:49PM 18.9719 -82.9419 205° Southwest  Level FlightAware Approximate
08:50PM 18.8679 -82.9930 205° Southwest  Level FlightAware Approximate
08:51PM 18.7638 -83.0440 205° Southwest  Level FlightAware Approximate
08:52PM 18.6598 -83.0949 205° Southwest  Level FlightAware Approximate
08:53PM 18.5557 -83.1458 205° Southwest  Level FlightAware Approximate
08:54PM 18.4516 -83.1966 205° Southwest  Level FlightAware Approximate
08:55PM 18.3475 -83.2474 205° Southwest  Level FlightAware Approximate
08:56PM 18.2434 -83.2981 205° Southwest  Level FlightAware Approximate
08:57PM 18.1392 -83.3487 205° Southwest  Level FlightAware Approximate
08:58PM 18.0351 -83.3993 205° Southwest  Level FlightAware Approximate
08:59PM 17.9309 -83.4498 205° Southwest  Level FlightAware Approximate
09:00PM 17.8267 -83.5003 205° Southwest  Level FlightAware Approximate
09:01PM 17.7226 -83.5507 205° Southwest  Level FlightAware Approximate
09:02PM 17.6184 -83.6011 205° Southwest  Level FlightAware Approximate
09:03PM 17.5142 -83.6514 205° Southwest  Level FlightAware Approximate
09:04PM 17.4099 -83.7016 205° Southwest  Level FlightAware Approximate
09:05PM 17.3057 -83.7517 205° Southwest  Level FlightAware Approximate
09:06PM 17.2015 -83.8019 205° Southwest  Level FlightAware Approximate
09:07PM 17.0972 -83.8519 205° Southwest  Level FlightAware Approximate
09:08PM 16.9929 -83.9019 205° Southwest  Level FlightAware Approximate
09:09PM 16.8886 -83.9519 205° Southwest  Level FlightAware Approximate
09:10PM 16.7843 -84.0018 205° Southwest  Level FlightAware Approximate
09:11PM 16.6800 -84.0516 205° Southwest  Level FlightAware Approximate
09:12PM 16.5757 -84.1014 205° Southwest  Level FlightAware Approximate
09:13PM 16.4714 -84.1511 205° Southwest  Level FlightAware Approximate
09:14PM 16.3670 -84.2008 205° Southwest  Level FlightAware Approximate
09:15PM 16.2627 -84.2504 205° Southwest  Level FlightAware Approximate
09:16PM 16.1583 -84.3000 205° Southwest  Level FlightAware Approximate
09:17PM 16.0539 -84.3495 205° Southwest  Level FlightAware Approximate
09:18PM 15.9495 -84.3990 204° Southwest  Level FlightAware Approximate
09:19PM 15.8451 -84.4484 204° Southwest  Level FlightAware Approximate
09:20PM 15.7407 -84.4978 204° Southwest  Level FlightAware Approximate
09:21PM 15.6363 -84.5471 204° Southwest  Level FlightAware Approximate
09:22PM 15.5319 -84.5963 204° Southwest  Level FlightAware Approximate
09:23PM 15.4274 -84.6456 204° Southwest  Level FlightAware Approximate
09:24PM 15.3230 -84.6947 204° Southwest  Level FlightAware Approximate
09:25PM 15.2185 -84.7438 204° Southwest  Level FlightAware Approximate
09:26PM 15.1140 -84.7929 204° Southwest  Level FlightAware Approximate
09:27PM 15.0095 -84.8419 204° Southwest  Level FlightAware Approximate
09:28PM 14.9050 -84.8909 204° Southwest  Level FlightAware Approximate
09:29PM 14.8005 -84.9398 204° Southwest  Level FlightAware Approximate
09:30PM 14.6959 -84.9886 204° Southwest  Level FlightAware Approximate
09:31PM 14.5914 -85.0373 204° Southwest  Level FlightAware Approximate
09:32PM 14.4868 -85.0860 204° Southwest  Level FlightAware Approximate
09:33PM 14.3822 -85.1346 204° Southwest  Level FlightAware Approximate
09:34PM 14.2776 -85.1832 204° Southwest  Level FlightAware Approximate
09:35PM 14.1730 -85.2318 204° Southwest  Level FlightAware Approximate
09:36PM 14.0684 -85.2803 204° Southwest  Level FlightAware Approximate
09:37PM 13.9637 -85.3288 204° Southwest  Level FlightAware Approximate
09:38PM 13.8591 -85.3772 204° Southwest  Level FlightAware Approximate
09:39PM 13.7545 -85.4256 204° Southwest  Level FlightAware Approximate
09:40PM 13.6498 -85.4739 204° Southwest  Level FlightAware Approximate
09:41PM 13.5451 -85.5222 204° Southwest  Level FlightAware Approximate
09:42PM 13.4404 -85.5704 204° Southwest  Level FlightAware Approximate
09:43PM 13.3358 -85.6187 204° Southwest  Level FlightAware Approximate
09:44PM 13.2311 -85.6668 204° Southwest  Level FlightAware Approximate
09:45PM 13.1264 -85.7149 204° Southwest  Level FlightAware Approximate
09:46PM 13.0217 -85.7630 204° Southwest  Level FlightAware Approximate
09:47PM 12.9169 -85.8111 204° Southwest  Level FlightAware Approximate
09:48PM 12.8122 -85.8591 204° Southwest  Level FlightAware Approximate
09:49PM 12.7075 -85.9070 204° Southwest  Level FlightAware Approximate
09:50PM 12.6023 -85.9538 203° Southwest  Level FlightAware Approximate
09:51PM 12.4964 -85.9992 203° Southwest  Level FlightAware Approximate
09:52PM 12.3913 -86.0460 206° Southwest  Level FlightAware Approximate
09:53PM 12.2869 -86.0947 203° Southwest  Level FlightAware Approximate
09:54PM 12.1821 -86.1423 206° Southwest  Level FlightAware Approximate
09:55PM 12.0790 -86.1395 154° Southeast  Level FlightAware Approximate
09:56PM 11.9719 -86.0978 160° South  Level FlightAware Approximate
09:57PM 11.8642 -86.0574 160° South  Level FlightAware Approximate
09:58PM 11.7573 -86.0150 157° South  Level FlightAware Approximate
09:59PM 11.6515 -85.9696 157° South  Level FlightAware Approximate
10:00PM 11.5458 -85.9243 157° South  Level FlightAware Approximate
10:01PM 11.4400 -85.8790 157° South  Level FlightAware Approximate
10:02PM 11.3342 -85.8337 157° South  Level FlightAware Approximate
10:03PM 11.2266 -85.7933 160° South  Level FlightAware Approximate
10:04PM 11.1175 -85.7629 158° South  Level FlightAware Approximate
10:05PM 11.0114 -85.7186 158° South  Level FlightAware Approximate
10:06PM 10.9058 -85.6729 156° South  Level FlightAware Approximate
10:07PM 10.8001 -85.6278 162° South  Level FlightAware Approximate
10:08PM 10.6953 -85.5810 154° Southeast  Level FlightAware Approximate
10:09PM 10.5896 -85.5358 159° South  Level FlightAware Approximate
10:10PM 10.5833 -85.5333 159° South  Level FlightAware Approximate
10:11PM 10.5933 -85.5444 159° South  Level Estimated
10:12PM 10.5933 -85.5444 159° South  Level Estimated